sensor_id;sensor_type;location;lat;lon;timestamp;pressure;altitude;pressure_sealevel;temperature;humidity
74437;BME280;62868;52.360;30.424;2023-05-01T00:01:31;1023.4;;;11.5;48.8
74437;BME280;62868;52.360;30.424;2023-05-01T00:06:43;1023.3;;;11.5;48.7
74437;BME280;62868;52.360;30.424;2023-05-01T00:11:59;1023.4;;;11.6;48.6
74437;BME280;62868;52.360;30.424;2023-05-01T00:16:21;1023.5;;;11.6;48.6
74437;BME280;62868;52.360;30.424;2023-05-01T00:21:33;1023.6;;;11.5;48.7
74437;BME280;62868;52.360;30.424;2023-05-01T00:26:11;1023.6;;;11.5;48.7
74437;BME280;62868;52.360;30.424;2023-05-01T00:31:55;1023.6;;;11.5;48.8
74437;BME280;62868;52.360;30.424;2023-05-01T00:36:33;1023.7;;;11.5;48.8
74437;BME280;62868;52.360;30.424;2023-05-01T00:41:11;1023.8;;;11.4;48.9
74437;BME280;62868;52.360;30.424;2023-05-01T00:46:41;1023.8;;;11.4;48.9
74437;BME280;62868;52.360;30.424;2023-05-01T00:51:37;1023.8;;;11.4;49
74437;BME280;62868;52.360;30.424;2023-05-01T00:56:17;1023.9;;;11.3;49.1
74437;BME280;62868;52.360;30.424;2023-05-01T01:01:23;1023.9;;;11.1;49.2
74437;BME280;62868;52.360;30.424;2023-05-01T01:06:59;1024;;;11;49.4
74437;BME280;62868;52.360;30.424;2023-05-01T01:11:26;1024;;;10.8;49.6
74437;BME280;62868;52.360;30.424;2023-05-01T01:16:44;1024.1;;;10.6;49.8
74437;BME280;62868;52.360;30.424;2023-05-01T01:21:40;1024.1;;;10.4;50.1
74437;BME280;62868;52.360;30.424;2023-05-01T01:26:50;1024.1;;;10.2;50.3
74437;BME280;62868;52.360;30.424;2023-05-01T01:31:32;1024.2;;;10;50.5
74437;BME280;62868;52.360;30.424;2023-05-01T01:36:58;1024.2;;;9.8;50.6
74437;BME280;62868;52.360;30.424;2023-05-01T01:41:56;1024.3;;;9.6;50.8
74437;BME280;62868;52.360;30.424;2023-05-01T01:46:57;1024.4;;;9.5;50.9
74437;BME280;62868;52.360;30.424;2023-05-01T01:51:12;1024.4;;;9.4;51.2
74437;BME280;62868;52.360;30.424;2023-05-01T01:56:55;1024.5;;;9.2;51.3
74437;BME280;62868;52.360;30.424;2023-05-01T02:01:35;1024.6;;;9.1;51.5
74437;BME280;62868;52.360;30.424;2023-05-01T02:06:37;1024.6;;;9;51.7
74437;BME280;62868;52.360;30.424;2023-05-01T02:11:43;1024.7;;;8.9;51.8
74437;BME280;62868;52.360;30.424;2023-05-01T02:16:57;1024.8;;;8.9;51.8
74437;BME280;62868;52.360;30.424;2023-05-01T02:21:25;1024.7;;;8.8;51.9
74437;BME280;62868;52.360;30.424;2023-05-01T02:26:56;1024.8;;;8.7;52
74437;BME280;62868;52.360;30.424;2023-05-01T02:31:55;1024.8;;;8.7;52.1
74437;BME280;62868;52.360;30.424;2023-05-01T02:36:31;1024.9;;;8.7;52.2
74437;BME280;62868;52.360;30.424;2023-05-01T02:41:19;1024.9;;;8.7;52.3
74437;BME280;62868;52.360;30.424;2023-05-01T02:46:25;1024.9;;;8.7;52.3
74437;BME280;62868;52.360;30.424;2023-05-01T02:51:11;1024.9;;;8.8;52.3
74437;BME280;62868;52.360;30.424;2023-05-01T02:56:49;1025;;;9;52.2
74437;BME280;62868;52.360;30.424;2023-05-01T03:01:43;1025.1;;;9.1;52
74437;BME280;62868;52.360;30.424;2023-05-01T03:06:25;1025.1;;;10.4;50.6
74437;BME280;62868;52.360;30.424;2023-05-01T03:11:55;1025.1;;;13.4;46.9
74437;BME280;62868;52.360;30.424;2023-05-01T03:16:55;1025.2;;;16.1;44.1
74437;BME280;62868;52.360;30.424;2023-05-01T03:21:27;1025.2;;;17.4;43
74437;BME280;62868;52.360;30.424;2023-05-01T03:26:31;1025.2;;;19.6;40.6
74437;BME280;62868;52.360;30.424;2023-05-01T03:31:23;1025.3;;;21.6;38.5
74437;BME280;62868;52.360;30.424;2023-05-01T03:36:53;1025.3;;;22.6;37.3
74437;BME280;62868;52.360;30.424;2023-05-01T03:41:33;1025.3;;;23.1;36.4
74437;BME280;62868;52.360;30.424;2023-05-01T03:46:21;1025.3;;;24.2;35.2
74437;BME280;62868;52.360;30.424;2023-05-01T03:51:55;1025.4;;;25.3;33.6
74437;BME280;62868;52.360;30.424;2023-05-01T03:56:25;1025.5;;;26;32.2
74437;BME280;62868;52.360;30.424;2023-05-01T04:01:23;1025.5;;;26.3;31.1
74437;BME280;62868;52.360;30.424;2023-05-01T04:06:27;1025.6;;;25.1;31.8
74437;BME280;62868;52.360;30.424;2023-05-01T04:11:57;1025.6;;;22.3;35
74437;BME280;62868;52.360;30.424;2023-05-01T04:16:35;1025.7;;;20.5;37
74437;BME280;62868;52.360;30.424;2023-05-01T04:21:55;1025.7;;;19.4;37.8
74437;BME280;62868;52.360;30.424;2023-05-01T04:26:57;1025.8;;;18.6;38.3
74437;BME280;62868;52.360;30.424;2023-05-01T04:31:55;1025.8;;;18;38.6
74437;BME280;62868;52.360;30.424;2023-05-01T04:36:33;1025.9;;;17.5;38.9
74437;BME280;62868;52.360;30.424;2023-05-01T04:41:45;1025.9;;;17.1;39.2
74437;BME280;62868;52.360;30.424;2023-05-01T04:46:39;1026;;;16.7;39.4
74437;BME280;62868;52.360;30.424;2023-05-01T04:51:47;1026.1;;;16.5;39.6
74437;BME280;62868;52.360;30.424;2023-05-01T04:56:17;1026.1;;;16.3;39.8
74437;BME280;62868;52.360;30.424;2023-05-01T05:01:55;1026.1;;;16.3;39.9
74437;BME280;62868;52.360;30.424;2023-05-01T05:06:47;1026.2;;;16.2;39.9
74437;BME280;62868;52.360;30.424;2023-05-01T05:11:21;1026.2;;;16.3;40
74437;BME280;62868;52.360;30.424;2023-05-01T05:16:27;1026.3;;;16.5;40
74437;BME280;62868;52.360;30.424;2023-05-01T05:21:55;1026.4;;;16.4;40.2
74437;BME280;62868;52.360;30.424;2023-05-01T05:26:25;1026.4;;;16.6;40.1
74437;BME280;62868;52.360;30.424;2023-05-01T05:31:45;1026.5;;;16.8;40
74437;BME280;62868;52.360;30.424;2023-05-01T05:36:55;1026.5;;;16.9;40
74437;BME280;62868;52.360;30.424;2023-05-01T05:41:21;1026.6;;;17;40
74437;BME280;62868;52.360;30.424;2023-05-01T05:46:39;1026.7;;;17.1;39.9
74437;BME280;62868;52.360;30.424;2023-05-01T05:51:25;1026.7;;;17.4;39.8
74437;BME280;62868;52.360;30.424;2023-05-01T05:56:23;1026.8;;;17.9;39.5
74437;BME280;62868;52.360;30.424;2023-05-01T06:01:49;1026.7;;;18.2;39.2
74437;BME280;62868;52.360;30.424;2023-05-01T06:06:25;1026.8;;;18.6;38.9
74437;BME280;62868;52.360;30.424;2023-05-01T06:11:21;1026.8;;;18.7;38.8
74437;BME280;62868;52.360;30.424;2023-05-01T06:16:41;1026.8;;;18.9;38.6
74437;BME280;62868;52.360;30.424;2023-05-01T06:21:55;1026.9;;;19.1;38.4
74437;BME280;62868;52.360;30.424;2023-05-01T06:26:27;1027;;;19.4;38.2
74437;BME280;62868;52.360;30.424;2023-05-01T06:31:31;1027.1;;;19.7;37.9
74437;BME280;62868;52.360;30.424;2023-05-01T06:36:33;1027.1;;;19.7;37.6
74437;BME280;62868;52.360;30.424;2023-05-01T06:41:57;1027.2;;;19.6;37.6
74437;BME280;62868;52.360;30.424;2023-05-01T06:46:33;1027.2;;;19.8;37.2
74437;BME280;62868;52.360;30.424;2023-05-01T06:51:23;1027.3;;;20.1;36.9
74437;BME280;62868;52.360;30.424;2023-05-01T06:56:57;1027.3;;;19.5;37.1
74437;BME280;62868;52.360;30.424;2023-05-01T07:01:11;1027.3;;;19.5;36.8
74437;BME280;62868;52.360;30.424;2023-05-01T07:06:21;1027.3;;;19.4;36.5
74437;BME280;62868;52.360;30.424;2023-05-01T07:11:29;1027.4;;;19.5;35.9
74437;BME280;62868;52.360;30.424;2023-05-01T07:16:57;1027.5;;;19.6;35.5
74437;BME280;62868;52.360;30.424;2023-05-01T07:21:23;1027.5;;;19.9;34.9
74437;BME280;62868;52.360;30.424;2023-05-01T07:26:55;1027.5;;;19.7;34.7
74437;BME280;62868;52.360;30.424;2023-05-01T07:31:45;1027.6;;;20;34.3
74437;BME280;62868;52.360;30.424;2023-05-01T07:36:11;1027.7;;;20;34
74437;BME280;62868;52.360;30.424;2023-05-01T07:41:33;1027.8;;;19.8;33.9
74437;BME280;62868;52.360;30.424;2023-05-01T07:46:45;1027.7;;;20;33.6
74437;BME280;62868;52.360;30.424;2023-05-01T07:51:29;1027.8;;;19.9;33.3
74437;BME280;62868;52.360;30.424;2023-05-01T07:56:57;1027.9;;;19.8;32.9
74437;BME280;62868;52.360;30.424;2023-05-01T08:01:23;1028;;;19.9;32.7
74437;BME280;62868;52.360;30.424;2023-05-01T08:06:57;1028;;;20.2;32.2
74437;BME280;62868;52.360;30.424;2023-05-01T08:11:41;1028.1;;;20.2;31.6
74437;BME280;62868;52.360;30.424;2023-05-01T08:16:11;1028.1;;;20.3;31.4
74437;BME280;62868;52.360;30.424;2023-05-01T08:21:11;1028.2;;;20.4;31.2
74437;BME280;62868;52.360;30.424;2023-05-01T08:26:57;1028.2;;;20.5;31.2
74437;BME280;62868;52.360;30.424;2023-05-01T08:31:23;1028.2;;;20.7;31.1
74437;BME280;62868;52.360;30.424;2023-05-01T08:36:45;1028.3;;;20.9;30.8
74437;BME280;62868;52.360;30.424;2023-05-01T08:41:45;1028.3;;;20.9;30.6
74437;BME280;62868;52.360;30.424;2023-05-01T08:46:24;1028.4;;;21.1;30.5
74437;BME280;62868;52.360;30.424;2023-05-01T08:51:35;1028.4;;;21;30.2
74437;BME280;62868;52.360;30.424;2023-05-01T08:56:37;1028.5;;;20.7;30
74437;BME280;62868;52.360;30.424;2023-05-01T09:01:23;1028.6;;;20.6;29.9
74437;BME280;62868;52.360;30.424;2023-05-01T09:06:49;1028.5;;;20.4;29.9
74437;BME280;62868;52.360;30.424;2023-05-01T09:11:58;1028.6;;;20.3;29.8
74437;BME280;62868;52.360;30.424;2023-05-01T09:16:29;1028.7;;;20.1;29.8
74437;BME280;62868;52.360;30.424;2023-05-01T09:21:35;1028.7;;;20.2;29.7
74437;BME280;62868;52.360;30.424;2023-05-01T09:26:49;1028.8;;;20.1;29.6
74437;BME280;62868;52.360;30.424;2023-05-01T09:31:45;1028.8;;;20.4;29.5
74437;BME280;62868;52.360;30.424;2023-05-01T09:36:33;1028.8;;;20.8;29.4
74437;BME280;62868;52.360;30.424;2023-05-01T09:41:49;1028.9;;;20.9;29.3
74437;BME280;62868;52.360;30.424;2023-05-01T09:46:57;1028.8;;;20.9;29.2
74437;BME280;62868;52.360;30.424;2023-05-01T09:52:09;1028.9;;;20.5;28.9
74437;BME280;62868;52.360;30.424;2023-05-01T09:56:11;1029;;;20.3;29
74437;BME280;62868;52.360;30.424;2023-05-01T10:01:57;1029;;;20.4;28.8
74437;BME280;62868;52.360;30.424;2023-05-01T10:06:49;1029;;;20.5;28.7
74437;BME280;62868;52.360;30.424;2023-05-01T10:11:25;1029;;;20.4;28.4
74437;BME280;62868;52.360;30.424;2023-05-01T10:16:29;1029.1;;;20.3;28.3
74437;BME280;62868;52.360;30.424;2023-05-01T10:21:47;1029;;;20.6;28.4
74437;BME280;62868;52.360;30.424;2023-05-01T10:26:21;1029.1;;;20.8;28.2
74437;BME280;62868;52.360;30.424;2023-05-01T10:31:37;1029;;;20.6;28.1
74437;BME280;62868;52.360;30.424;2023-05-01T10:36:59;1029.1;;;20.8;28.1
74437;BME280;62868;52.360;30.424;2023-05-01T10:42:28;1029.1;;;20.8;28.1
74437;BME280;62868;52.360;30.424;2023-05-01T10:46:31;1029.1;;;20.9;28
74437;BME280;62868;52.360;30.424;2023-05-01T10:51:57;1029.1;;;20.7;27.7
74437;BME280;62868;52.360;30.424;2023-05-01T10:56:39;1029.2;;;20.6;27.6
74437;BME280;62868;52.360;30.424;2023-05-01T11:01:50;1029.2;;;20.3;27.5
74437;BME280;62868;52.360;30.424;2023-05-01T11:06:19;1029.2;;;20.6;27.5
74437;BME280;62868;52.360;30.424;2023-05-01T11:11:44;1029.1;;;20.9;27.5
74437;BME280;62868;52.360;30.424;2023-05-01T11:16:57;1029.2;;;20.9;27.3
74437;BME280;62868;52.360;30.424;2023-05-01T11:21:55;1029.3;;;20.5;27.3
74437;BME280;62868;52.360;30.424;2023-05-01T11:26:17;1029.2;;;20.4;27.2
74437;BME280;62868;52.360;30.424;2023-05-01T11:31:33;1029.3;;;20.3;27
74437;BME280;62868;52.360;30.424;2023-05-01T11:36:11;1029.3;;;19.9;26.9
74437;BME280;62868;52.360;30.424;2023-05-01T11:42:05;1029.3;;;19.9;26.9
74437;BME280;62868;52.360;30.424;2023-05-01T11:46:22;1029.3;;;19.9;26.9
74437;BME280;62868;52.360;30.424;2023-05-01T11:51:12;1029.3;;;19.9;26.8
74437;BME280;62868;52.360;30.424;2023-05-01T11:56:58;1029.3;;;19.8;26.7
74437;BME280;62868;52.360;30.424;2023-05-01T12:01:38;1029.3;;;19.6;26.6
74437;BME280;62868;52.360;30.424;2023-05-01T12:06:17;1029.3;;;19.6;26.6
74437;BME280;62868;52.360;30.424;2023-05-01T12:11:23;1029.3;;;20;26.7
74437;BME280;62868;52.360;30.424;2023-05-01T12:16:37;1029.4;;;20;26.7
74437;BME280;62868;52.360;30.424;2023-05-01T12:21:23;1029.4;;;19.8;26.5
74437;BME280;62868;52.360;30.424;2023-05-01T12:26:59;1029.4;;;19.9;26.4
74437;BME280;62868;52.360;30.424;2023-05-01T12:31:57;1029.4;;;19.8;26.3
74437;BME280;62868;52.360;30.424;2023-05-01T12:36:11;1029.4;;;19.5;26.2
74437;BME280;62868;52.360;30.424;2023-05-01T12:41:11;1029.4;;;19.4;26.1
74437;BME280;62868;52.360;30.424;2023-05-01T12:46:13;1029.4;;;19.4;26
74437;BME280;62868;52.360;30.424;2023-05-01T12:51:56;1029.4;;;19.3;26
74437;BME280;62868;52.360;30.424;2023-05-01T12:56:48;1029.4;;;19.3;26
74437;BME280;62868;52.360;30.424;2023-05-01T13:01:24;1029.4;;;19.2;25.7
74437;BME280;62868;52.360;30.424;2023-05-01T13:06:56;1029.5;;;19.3;25.6
74437;BME280;62868;52.360;30.424;2023-05-01T13:11:56;1029.5;;;19.1;25.6
74437;BME280;62868;52.360;30.424;2023-05-01T13:16:25;1029.5;;;19.1;25.6
74437;BME280;62868;52.360;30.424;2023-05-01T13:21:29;1029.5;;;19.3;25.5
74437;BME280;62868;52.360;30.424;2023-05-01T13:26:57;1029.5;;;19.2;25.5
74437;BME280;62868;52.360;30.424;2023-05-01T13:31:12;1029.5;;;19;25.4
74437;BME280;62868;52.360;30.424;2023-05-01T13:36:32;1029.6;;;18.9;25.4
74437;BME280;62868;52.360;30.424;2023-05-01T13:41:57;1029.6;;;18.8;25.4
74437;BME280;62868;52.360;30.424;2023-05-01T13:46:34;1029.6;;;18.6;25.2
74437;BME280;62868;52.360;30.424;2023-05-01T13:51:57;1029.6;;;18.3;25.2
74437;BME280;62868;52.360;30.424;2023-05-01T13:56:49;1029.7;;;18.2;25.1
74437;BME280;62868;52.360;30.424;2023-05-01T14:01:29;1029.7;;;18;24.9
74437;BME280;62868;52.360;30.424;2023-05-01T14:06:49;1029.7;;;17.9;25
74437;BME280;62868;52.360;30.424;2023-05-01T14:11:40;1029.7;;;17.8;25
74437;BME280;62868;52.360;30.424;2023-05-01T14:16:58;1029.7;;;17.7;25.1
74437;BME280;62868;52.360;30.424;2023-05-01T14:21:37;1029.7;;;17.7;25.1
74437;BME280;62868;52.360;30.424;2023-05-01T14:26:58;1029.8;;;17.7;25.1
74437;BME280;62868;52.360;30.424;2023-05-01T14:31:24;1029.8;;;17.6;25.1
74437;BME280;62868;52.360;30.424;2023-05-01T14:36:22;1029.9;;;17.5;25.1
74437;BME280;62868;52.360;30.424;2023-05-01T14:41:24;1029.9;;;17.4;25.2
74437;BME280;62868;52.360;30.424;2023-05-01T14:46:58;1029.9;;;17.2;25.2
74437;BME280;62868;52.360;30.424;2023-05-01T14:51:22;1029.9;;;17.1;25.3
74437;BME280;62868;52.360;30.424;2023-05-01T14:56:22;1029.9;;;16.9;25.3
74437;BME280;62868;52.360;30.424;2023-05-01T15:01:56;1029.9;;;16.8;25.4
74437;BME280;62868;52.360;30.424;2023-05-01T15:06:38;1029.9;;;16.7;25.5
74437;BME280;62868;52.360;30.424;2023-05-01T15:11:28;1030;;;16.6;25.7
74437;BME280;62868;52.360;30.424;2023-05-01T15:16:30;1030;;;16.5;25.7
74437;BME280;62868;52.360;30.424;2023-05-01T15:21:58;1030.1;;;16.3;25.8
74437;BME280;62868;52.360;30.424;2023-05-01T15:26:12;1030.1;;;16.2;25.8
74437;BME280;62868;52.360;30.424;2023-05-01T15:31:58;1030;;;16.1;25.9
74437;BME280;62868;52.360;30.424;2023-05-01T15:36:58;1030.1;;;15.9;26
74437;BME280;62868;52.360;30.424;2023-05-01T15:41:12;1030.1;;;15.7;25.9
74437;BME280;62868;52.360;30.424;2023-05-01T15:46:22;1030.2;;;15.6;26.1
74437;BME280;62868;52.360;30.424;2023-05-01T15:51:58;1030.2;;;15.5;26.1
74437;BME280;62868;52.360;30.424;2023-05-01T15:56:48;1030.3;;;15.4;26.1
74437;BME280;62868;52.360;30.424;2023-05-01T16:01:48;1030.3;;;15.4;26.1
74437;BME280;62868;52.360;30.424;2023-05-01T16:06:39;1030.4;;;15.3;26.2
74437;BME280;62868;52.360;30.424;2023-05-01T16:12:00;1030.4;;;15.1;26.3
74437;BME280;62868;52.360;30.424;2023-05-01T16:16:17;1030.4;;;15;26.4
74437;BME280;62868;52.360;30.424;2023-05-01T16:21:22;1030.4;;;14.9;26.5
74437;BME280;62868;52.360;30.424;2023-05-01T16:26:24;1030.5;;;14.8;26.5
74437;BME280;62868;52.360;30.424;2023-05-01T16:31:58;1030.5;;;14.7;26.7
74437;BME280;62868;52.360;30.424;2023-05-01T16:36:13;1030.5;;;14.5;26.9
74437;BME280;62868;52.360;30.424;2023-05-01T16:41:20;1030.6;;;14.5;27
74437;BME280;62868;52.360;30.424;2023-05-01T16:46:47;1030.7;;;14.3;27.1
74437;BME280;62868;52.360;30.424;2023-05-01T16:51:22;1030.7;;;14.1;27.2
74437;BME280;62868;52.360;30.424;2023-05-01T16:56:42;1030.7;;;14;27.3
74437;BME280;62868;52.360;30.424;2023-05-01T17:01:38;1030.8;;;13.9;27.3
74437;BME280;62868;52.360;30.424;2023-05-01T17:06:24;1030.8;;;13.7;27.5
74437;BME280;62868;52.360;30.424;2023-05-01T17:11:50;1030.9;;;13.5;27.7
74437;BME280;62868;52.360;30.424;2023-05-01T17:16:58;1030.9;;;13.4;27.8
74437;BME280;62868;52.360;30.424;2023-05-01T17:21:12;1031;;;13.3;27.9
74437;BME280;62868;52.360;30.424;2023-05-01T17:26:42;1031.1;;;13.1;28.1
74437;BME280;62868;52.360;30.424;2023-05-01T17:31:50;1031.1;;;12.9;28.5
74437;BME280;62868;52.360;30.424;2023-05-01T17:36:58;1031.2;;;12.7;28.7
74437;BME280;62868;52.360;30.424;2023-05-01T17:41:12;1031.2;;;12.5;28.9
74437;BME280;62868;52.360;30.424;2023-05-01T17:46:44;1031.3;;;12.3;29.2
74437;BME280;62868;52.360;30.424;2023-05-01T17:51:58;1031.3;;;12.2;29.5
74437;BME280;62868;52.360;30.424;2023-05-01T17:56:58;1031.4;;;12;29.8
74437;BME280;62868;52.360;30.424;2023-05-01T18:01:44;1031.5;;;11.9;30
74437;BME280;62868;52.360;30.424;2023-05-01T18:07:00;1031.5;;;11.7;30.3
74437;BME280;62868;52.360;30.424;2023-05-01T18:11:50;1031.6;;;11.6;30.6
74437;BME280;62868;52.360;30.424;2023-05-01T18:16:12;1031.6;;;11.4;30.9
74437;BME280;62868;52.360;30.424;2023-05-01T18:21:20;1031.6;;;11.2;31.3
74437;BME280;62868;52.360;30.424;2023-05-01T18:27:00;1031.6;;;10.9;31.7
74437;BME280;62868;52.360;30.424;2023-05-01T18:31:38;1031.6;;;10.7;32.1
74437;BME280;62868;52.360;30.424;2023-05-01T18:36:46;1031.7;;;10.5;32.4
74437;BME280;62868;52.360;30.424;2023-05-01T18:41:58;1031.7;;;10.3;32.8
74437;BME280;62868;52.360;30.424;2023-05-01T18:46:34;1031.8;;;10.2;33.1
74437;BME280;62868;52.360;30.424;2023-05-01T18:51:12;1031.8;;;10;33.4
74437;BME280;62868;52.360;30.424;2023-05-01T18:56:58;1031.8;;;9.9;33.7
74437;BME280;62868;52.360;30.424;2023-05-01T19:01:12;1031.9;;;9.7;34.1
74437;BME280;62868;52.360;30.424;2023-05-01T19:06:14;1031.9;;;9.5;34.5
74437;BME280;62868;52.360;30.424;2023-05-01T19:11:26;1031.9;;;9.4;34.7
74437;BME280;62868;52.360;30.424;2023-05-01T19:16:30;1031.9;;;9.2;35.1
74437;BME280;62868;52.360;30.424;2023-05-01T19:21:36;1031.9;;;9.1;35.5
74437;BME280;62868;52.360;30.424;2023-05-01T19:27:00;1032;;;9;35.8
74437;BME280;62868;52.360;30.424;2023-05-01T19:31:22;1032;;;8.9;36.2
74437;BME280;62868;52.360;30.424;2023-05-01T19:36:34;1032;;;8.7;36.6
74437;BME280;62868;52.360;30.424;2023-05-01T19:41:12;1032.1;;;8.6;36.9
74437;BME280;62868;52.360;30.424;2023-05-01T19:46:58;1032.2;;;8.5;37.2
74437;BME280;62868;52.360;30.424;2023-05-01T19:51:50;1032.2;;;8.4;37.6
74437;BME280;62868;52.360;30.424;2023-05-01T19:56:24;1032.2;;;8.3;38
74437;BME280;62868;52.360;30.424;2023-05-01T20:01:58;1032.3;;;8.2;38.3
74437;BME280;62868;52.360;30.424;2023-05-01T20:06:38;1032.3;;;8.1;38.6
74437;BME280;62868;52.360;30.424;2023-05-01T20:11:12;1032.4;;;8;39.1
74437;BME280;62868;52.360;30.424;2023-05-01T20:16:30;1032.5;;;7.9;39.3
74437;BME280;62868;52.360;30.424;2023-05-01T20:21:56;1032.5;;;7.7;39.4
74437;BME280;62868;52.360;30.424;2023-05-01T20:26:12;1032.5;;;7.7;39.8
74437;BME280;62868;52.360;30.424;2023-05-01T20:31:58;1032.5;;;7.6;40
74437;BME280;62868;52.360;30.424;2023-05-01T20:36:58;1032.6;;;7.5;40.3
74437;BME280;62868;52.360;30.424;2023-05-01T20:41:34;1032.6;;;7.5;40.5
74437;BME280;62868;52.360;30.424;2023-05-01T20:46:22;1032.6;;;7.4;40.9
74437;BME280;62868;52.360;30.424;2023-05-01T20:51:46;1032.7;;;7.4;41.2
74437;BME280;62868;52.360;30.424;2023-05-01T20:56:42;1032.7;;;7.3;41.6
74437;BME280;62868;52.360;30.424;2023-05-01T21:01:50;1032.7;;;7.3;41.9
74437;BME280;62868;52.360;30.424;2023-05-01T21:06:38;1032.7;;;7.2;42.1
74437;BME280;62868;52.360;30.424;2023-05-01T21:11:58;1032.8;;;7.1;42.4
74437;BME280;62868;52.360;30.424;2023-05-01T21:16:52;1032.8;;;7;42.7
74437;BME280;62868;52.360;30.424;2023-05-01T21:21:22;1032.8;;;7;43
74437;BME280;62868;52.360;30.424;2023-05-01T21:26:30;1032.8;;;6.9;43.1
74437;BME280;62868;52.360;30.424;2023-05-01T21:31:42;1032.9;;;6.8;43.4
74437;BME280;62868;52.360;30.424;2023-05-01T21:36:35;1032.9;;;6.7;43.7
74437;BME280;62868;52.360;30.424;2023-05-01T21:41:45;1033;;;6.7;43.9
74437;BME280;62868;52.360;30.424;2023-05-01T21:46:46;1033;;;6.6;44.2
74437;BME280;62868;52.360;30.424;2023-05-01T21:51:24;1033.1;;;6.6;44.4
74437;BME280;62868;52.360;30.424;2023-05-01T21:56:34;1033.1;;;6.5;44.6
74437;BME280;62868;52.360;30.424;2023-05-01T22:01:38;1033.2;;;6.5;44.8
74437;BME280;62868;52.360;30.424;2023-05-01T22:06:24;1033.2;;;6.4;44.9
74437;BME280;62868;52.360;30.424;2023-05-01T22:11:36;1033.3;;;6.4;45.1
74437;BME280;62868;52.360;30.424;2023-05-01T22:16:38;1033.3;;;6.3;45.3
74437;BME280;62868;52.360;30.424;2023-05-01T22:21:12;1033.3;;;6.2;45.5
74437;BME280;62868;52.360;30.424;2023-05-01T22:26:14;1033.3;;;6.2;45.6
74437;BME280;62868;52.360;30.424;2023-05-01T22:31:58;1033.3;;;6.1;45.8
74437;BME280;62868;52.360;30.424;2023-05-01T22:36:30;1033.4;;;6.1;46
74437;BME280;62868;52.360;30.424;2023-05-01T22:41:22;1033.4;;;6;46.1
74437;BME280;62868;52.360;30.424;2023-05-01T22:46:12;1033.4;;;6;46.3
74437;BME280;62868;52.360;30.424;2023-05-01T22:51:58;1033.4;;;6;46.4
74437;BME280;62868;52.360;30.424;2023-05-01T22:56:22;1033.4;;;5.9;46.6
74437;BME280;62868;52.360;30.424;2023-05-01T23:01:12;1033.5;;;5.8;46.7
74437;BME280;62868;52.360;30.424;2023-05-01T23:07:00;1033.4;;;5.8;47
74437;BME280;62868;52.360;30.424;2023-05-01T23:11:24;1033.5;;;5.8;47.1
74437;BME280;62868;52.360;30.424;2023-05-01T23:17:00;1033.5;;;5.7;47.3
74437;BME280;62868;52.360;30.424;2023-05-01T23:21:12;1033.5;;;5.6;47.5
74437;BME280;62868;52.360;30.424;2023-05-01T23:27:00;1033.6;;;5.6;47.6
74437;BME280;62868;52.360;30.424;2023-05-01T23:31:58;1033.6;;;5.6;47.7
74437;BME280;62868;52.360;30.424;2023-05-01T23:36:52;1033.6;;;5.5;47.8
74437;BME280;62868;52.360;30.424;2023-05-01T23:41:46;1033.6;;;5.4;48
74437;BME280;62868;52.360;30.424;2023-05-01T23:46:48;1033.6;;;5.4;48.1
74437;BME280;62868;52.360;30.424;2023-05-01T23:51:48;1033.7;;;5.3;48.2
74437;BME280;62868;52.360;30.424;2023-05-01T23:56:44;1033.7;;;5.3;48.3
